Aviation Digital Data Service (ADDS)

Output produced by METARs form (0843 UTC 18 February 2019)
found at http://www.aviationweather.gov/metar/data/
 
METAR text: BIEG 180800Z 36016KT 9999 -RA FEW012 BKN020 OVC035 01/00 Q0993 R04/790131
Conditions at: BIEG (EGILSSTADIR , IS) observed 0800 UTC 18 February 2019
Temperature: 1.0°C (34°F)
Dewpoint: 0.0°C (32°F) [RH = 93%]
Pressure (altimeter): 29.32 inches Hg (993.0 mb)
Winds: from the N (360 degrees) at 18 MPH (16 knots; 8.2 m/s)
Visibility: 6 or more miles (10+ km)
Ceiling: 2000 feet AGL
Clouds: few clouds at 1200 feet AGL
broken clouds at 2000 feet AGL
overcast cloud deck at 3500 feet AGL
Weather: -RA  (light rain)

METAR text: BIEG 180700Z 36015KT 9999 -SNRA FEW012 BKN020 OVC030 01/00 Q0992 R04/790193
Conditions at: BIEG (EGILSSTADIR , IS) observed 0700 UTC 18 February 2019
Temperature: 1.0°C (34°F)
Dewpoint: 0.0°C (32°F) [RH = 93%]
Pressure (altimeter): 29.29 inches Hg (992.0 mb)
Winds: from the N (360 degrees) at 17 MPH (15 knots; 7.7 m/s)
Visibility: 6 or more miles (10+ km)
Ceiling: 2000 feet AGL
Clouds: few clouds at 1200 feet AGL
broken clouds at 2000 feet AGL
overcast cloud deck at 3000 feet AGL
Weather: -SN -RA  (light snow, light rain)

METAR text: BIEG 180600Z 36013KT 9999 VCSH FEW015 BKN022 OVC030 01/00 Q0992 R04/790134
Conditions at: BIEG (EGILSSTADIR , IS) observed 0600 UTC 18 February 2019
Temperature: 1.0°C (34°F)
Dewpoint: 0.0°C (32°F) [RH = 93%]
Pressure (altimeter): 29.29 inches Hg (992.0 mb)
Winds: from the N (360 degrees) at 15 MPH (13 knots; 6.7 m/s)
Visibility: 6 or more miles (10+ km)
Ceiling: 2200 feet AGL
Clouds: few clouds at 1500 feet AGL
broken clouds at 2200 feet AGL
overcast cloud deck at 3000 feet AGL
Weather: VCSH  (showers in vicinity)

METAR text: BIEG 180500Z 36014KT 0999 VCSH SCT015 OVC025 01/00 Q0992 R04/790192
Conditions at: BIEG (EGILSSTADIR , IS) observed 0500 UTC 18 February 2019
Temperature: 1.0°C (34°F)
Dewpoint: 0.0°C (32°F) [RH = 93%]
Pressure (altimeter): 29.29 inches Hg (992.0 mb)
Winds: from the N (360 degrees) at 16 MPH (14 knots; 7.2 m/s)
Visibility: 0.62 miles (1.00 km)
Ceiling: 2500 feet AGL
Clouds: scattered clouds at 1500 feet AGL
overcast cloud deck at 2500 feet AGL
Weather: VCSH  (showers in vicinity)

METAR text: BIEG 180400Z 36015KT 9000 -SNRA SCT012 OVC020 01/00 Q0991 R04/790192
Conditions at: BIEG (EGILSSTADIR , IS) observed 0400 UTC 18 February 2019
Temperature: 1.0°C (34°F)
Dewpoint: 0.0°C (32°F) [RH = 93%]
Pressure (altimeter): 29.26 inches Hg (991.0 mb)
Winds: from the N (360 degrees) at 17 MPH (15 knots; 7.7 m/s)
Visibility: 6 miles ( 9 km)
Ceiling: 2000 feet AGL
Clouds: scattered clouds at 1200 feet AGL
overcast cloud deck at 2000 feet AGL
Weather: -SN -RA  (light snow, light rain)

METAR text: BIEG 180300Z 36015KT 6000 -SNRA SCT012 OVC022 01/00 Q0991 R04/790130
Conditions at: BIEG (EGILSSTADIR , IS) observed 0300 UTC 18 February 2019
Temperature: 1.0°C (34°F)
Dewpoint: 0.0°C (32°F) [RH = 93%]
Pressure (altimeter): 29.26 inches Hg (991.0 mb)
Winds: from the N (360 degrees) at 17 MPH (15 knots; 7.7 m/s)
Visibility: 4 miles ( 6 km)
Ceiling: 2200 feet AGL
Clouds: scattered clouds at 1200 feet AGL
overcast cloud deck at 2200 feet AGL
Weather: -SN -RA  (light snow, light rain)

METAR text: BIEG 180200Z 36016KT 7000 -SNRA SCT012 OVC020 01/00 Q0991 R04/750136
Conditions at: BIEG (EGILSSTADIR , IS) observed 0200 UTC 18 February 2019
Temperature: 1.0°C (34°F)
Dewpoint: 0.0°C (32°F) [RH = 93%]
Pressure (altimeter): 29.26 inches Hg (991.0 mb)
Winds: from the N (360 degrees) at 18 MPH (16 knots; 8.2 m/s)
Visibility: 4 miles ( 7 km)
Ceiling: 2000 feet AGL
Clouds: scattered clouds at 1200 feet AGL
overcast cloud deck at 2000 feet AGL
Weather: -SN -RA  (light snow, light rain)

METAR text: BIEG 180100Z 36016KT 5000 SNRA BKN012 OVC020 00/00 Q0991 R04/290195
Conditions at: BIEG (EGILSSTADIR , IS) observed 0100 UTC 18 February 2019
Temperature: 0.0°C (32°F)
Dewpoint: 0.0°C (32°F) [RH = 100%]
Pressure (altimeter): 29.26 inches Hg (991.0 mb)
Winds: from the N (360 degrees) at 18 MPH (16 knots; 8.2 m/s)
Visibility: 3 miles ( 5 km)
Ceiling: 1200 feet AGL
Clouds: broken clouds at 1200 feet AGL
overcast cloud deck at 2000 feet AGL
Weather: SN RA  (moderate snow, moderate rain)

METAR text: BIEG 180000Z 36017KT 6000 SNRA SCT010 OVC020 00/M00 Q0991 R04/290195
Conditions at: BIEG (EGILSSTADIR , IS) observed 0000 UTC 18 February 2019
Temperature: 0.0°C (32°F)
Dewpoint: 0.0°C (32°F) [RH = 100%]
Pressure (altimeter): 29.26 inches Hg (991.0 mb)
Winds: from the N (360 degrees) at 20 MPH (17 knots; 8.7 m/s)
Visibility: 4 miles ( 6 km)
Ceiling: 2000 feet AGL
Clouds: scattered clouds at 1000 feet AGL
overcast cloud deck at 2000 feet AGL
Weather: SN RA  (moderate snow, moderate rain)

METAR text: BIEG 172300Z 36025KT 7000 RA BR FEW005 BKN015 OVC025 01/00 Q0991 R04/290143
Conditions at: BIEG (EGILSSTADIR , IS) observed 2300 UTC 17 February 2019
Temperature: 1.0°C (34°F)
Dewpoint: 0.0°C (32°F) [RH = 93%]
Pressure (altimeter): 29.26 inches Hg (991.0 mb)
Winds: from the N (360 degrees) at 29 MPH (25 knots; 12.9 m/s)
Visibility: 4 miles ( 7 km)
Ceiling: 1500 feet AGL
Clouds: few clouds at 500 feet AGL
broken clouds at 1500 feet AGL
overcast cloud deck at 2500 feet AGL
Weather: RA BR  (moderate rain, mist)

METAR text: BIEG 172200Z 36021KT 7000 RA BR FEW005 BKN018 OVC025 01/00 Q0991 R04/290195
Conditions at: BIEG (EGILSSTADIR , IS) observed 2200 UTC 17 February 2019
Temperature: 1.0°C (34°F)
Dewpoint: 0.0°C (32°F) [RH = 93%]
Pressure (altimeter): 29.26 inches Hg (991.0 mb)
Winds: from the N (360 degrees) at 24 MPH (21 knots; 10.8 m/s)
Visibility: 4 miles ( 7 km)
Ceiling: 1800 feet AGL
Clouds: few clouds at 500 feet AGL
broken clouds at 1800 feet AGL
overcast cloud deck at 2500 feet AGL
Weather: RA BR  (moderate rain, mist)

METAR text: BIEG 172100Z 36020KT 8000 -RA BR SCT005 BKN015 OVC025 01/00 Q0991 R04/290195
Conditions at: BIEG (EGILSSTADIR , IS) observed 2100 UTC 17 February 2019
Temperature: 1.0°C (34°F)
Dewpoint: 0.0°C (32°F) [RH = 93%]
Pressure (altimeter): 29.26 inches Hg (991.0 mb)
Winds: from the N (360 degrees) at 23 MPH (20 knots; 10.3 m/s)
Visibility: 5 miles ( 8 km)
Ceiling: 1500 feet AGL
Clouds: scattered clouds at 500 feet AGL
broken clouds at 1500 feet AGL
overcast cloud deck at 2500 feet AGL
Weather: -RA BR  (light rain, mist)

METAR text: BIEG 172000Z 01016KT 5000 -DZ SCT015 BKN020 OVC040 01/00 Q0991 R04/290195
Conditions at: BIEG (EGILSSTADIR , IS) observed 2000 UTC 17 February 2019
Temperature: 1.0°C (34°F)
Dewpoint: 0.0°C (32°F) [RH = 93%]
Pressure (altimeter): 29.26 inches Hg (991.0 mb)
Winds: from the N (10 degrees) at 18 MPH (16 knots; 8.2 m/s)
Visibility: 3 miles ( 5 km)
Ceiling: 2000 feet AGL
Clouds: scattered clouds at 1500 feet AGL
broken clouds at 2000 feet AGL
overcast cloud deck at 4000 feet AGL
Weather: -DZ  (light drizzle)

METAR text: BIEG 171900Z 01015KT 5000 -RA BR SCT003 OVC012 01/00 Q0992 R04/290195
Conditions at: BIEG (EGILSSTADIR , IS) observed 1900 UTC 17 February 2019
Temperature: 1.0°C (34°F)
Dewpoint: 0.0°C (32°F) [RH = 93%]
Pressure (altimeter): 29.29 inches Hg (992.0 mb)
Winds: from the N (10 degrees) at 17 MPH (15 knots; 7.7 m/s)
Visibility: 3 miles ( 5 km)
Ceiling: 1200 feet AGL
Clouds: scattered clouds at 300 feet AGL
overcast cloud deck at 1200 feet AGL
Weather: -RA BR  (light rain, mist)

METAR text: BIEG 171800Z 01014KT 5000 -SHRA SCT003 OVC012 00/00 Q0992 R04/290195
Conditions at: BIEG (EGILSSTADIR , IS) observed 1800 UTC 17 February 2019
Temperature: 0.0°C (32°F)
Dewpoint: 0.0°C (32°F) [RH = 100%]
Pressure (altimeter): 29.29 inches Hg (992.0 mb)
Winds: from the N (10 degrees) at 16 MPH (14 knots; 7.2 m/s)
Visibility: 3 miles ( 5 km)
Ceiling: 1200 feet AGL
Clouds: scattered clouds at 300 feet AGL
overcast cloud deck at 1200 feet AGL
Weather: -SHRA  (light rain showers)

METAR text: BIEG 171700Z 36015KT 3000 -DZ FEW002 SCT005 OVC015 01/00 Q0992 R04/290195
Conditions at: BIEG (EGILSSTADIR , IS) observed 1700 UTC 17 February 2019
Temperature: 1.0°C (34°F)
Dewpoint: 0.0°C (32°F) [RH = 93%]
Pressure (altimeter): 29.29 inches Hg (992.0 mb)
Winds: from the N (360 degrees) at 17 MPH (15 knots; 7.7 m/s)
Visibility: 1.86 miles (2.99 km)
Ceiling: 1500 feet AGL
Clouds: few clouds at 200 feet AGL
scattered clouds at 500 feet AGL
overcast cloud deck at 1500 feet AGL
Weather: -DZ  (light drizzle)

METAR text: BIEG 171600Z 36015KT 3000 -RA BR VV003 00/00 Q0993 R04/290195
Conditions at: BIEG (EGILSSTADIR , IS) observed 1600 UTC 17 February 2019
Temperature: 0.0°C (32°F)
Dewpoint: 0.0°C (32°F) [RH = 100%]
Pressure (altimeter): 29.32 inches Hg (993.0 mb)
Winds: from the N (360 degrees) at 17 MPH (15 knots; 7.7 m/s)
Visibility: 1.86 miles (2.99 km)
Ceiling: indefinite ceiling with vertical visibility of 300 feet AGL
Clouds: obscured sky
Weather: -RA BR  (light rain, mist)

METAR text: BIEG 171500Z 36016KT 3000 -RA BR VV003 01/01 Q0993 R04/190095
Conditions at: BIEG (EGILSSTADIR , IS) observed 1500 UTC 17 February 2019
Temperature: 1.0°C (34°F)
Dewpoint: 1.0°C (34°F) [RH = 100%]
Pressure (altimeter): 29.32 inches Hg (993.0 mb)
Winds: from the N (360 degrees) at 18 MPH (16 knots; 8.2 m/s)
Visibility: 1.86 miles (2.99 km)
Ceiling: indefinite ceiling with vertical visibility of 300 feet AGL
Clouds: obscured sky
Weather: -RA BR  (light rain, mist)

METAR text: BIEG 171400Z 36018KT 9000 4000N OVC003 01/01 Q0994 R04/190095
Conditions at: BIEG (EGILSSTADIR , IS) observed 1400 UTC 17 February 2019
Temperature: 1.0°C (34°F)
Dewpoint: 1.0°C (34°F) [RH = 100%]
Pressure (altimeter): 29.35 inches Hg (994.0 mb)
Winds: from the N (360 degrees) at 21 MPH (18 knots; 9.3 m/s)
Visibility: 6 miles ( 9 km)
Ceiling: 300 feet AGL
Clouds: overcast cloud deck at 300 feet AGL
Weather: no significant weather observed at this time

METAR text: BIEG 171300Z 01016KT 9000 4000N OVC002 01/00 Q0994 R04/290095
Conditions at: BIEG (EGILSSTADIR , IS) observed 1300 UTC 17 February 2019
Temperature: 1.0°C (34°F)
Dewpoint: 0.0°C (32°F) [RH = 93%]
Pressure (altimeter): 29.35 inches Hg (994.0 mb)
Winds: from the N (10 degrees) at 18 MPH (16 knots; 8.2 m/s)
Visibility: 6 miles ( 9 km)
Ceiling: 200 feet AGL
Clouds: overcast cloud deck at 200 feet AGL
Weather: no significant weather observed at this time

METAR text: BIEG 171200Z 01016KT 9999 BKN004 01/00 Q0995 R04/790194
Conditions at: BIEG (EGILSSTADIR , IS) observed 1200 UTC 17 February 2019
Temperature: 1.0°C (34°F)
Dewpoint: 0.0°C (32°F) [RH = 93%]
Pressure (altimeter): 29.38 inches Hg (995.0 mb)
Winds: from the N (10 degrees) at 18 MPH (16 knots; 8.2 m/s)
Visibility: 6 or more miles (10+ km)
Ceiling: 400 feet AGL
Clouds: broken clouds at 400 feet AGL
Weather: no significant weather observed at this time

METAR text: BIEG 171100Z 36018KT 9999 BKN002 00/M00 Q0995 R04/790194
Conditions at: BIEG (EGILSSTADIR , IS) observed 1100 UTC 17 February 2019
Temperature: 0.0°C (32°F)
Dewpoint: 0.0°C (32°F) [RH = 100%]
Pressure (altimeter): 29.38 inches Hg (995.0 mb)
Winds: from the N (360 degrees) at 21 MPH (18 knots; 9.3 m/s)
Visibility: 6 or more miles (10+ km)
Ceiling: 200 feet AGL
Clouds: broken clouds at 200 feet AGL
Weather: no significant weather observed at this time

METAR text: BIEG 171000Z 36020KT 9999 SCT025 BKN060 00/M00 Q0996 R04/790194
Conditions at: BIEG (EGILSSTADIR , IS) observed 1000 UTC 17 February 2019
Temperature: 0.0°C (32°F)
Dewpoint: 0.0°C (32°F) [RH = 100%]
Pressure (altimeter): 29.41 inches Hg (996.0 mb)
Winds: from the N (360 degrees) at 23 MPH (20 knots; 10.3 m/s)
Visibility: 6 or more miles (10+ km)
Ceiling: 6000 feet AGL
Clouds: scattered clouds at 2500 feet AGL
broken clouds at 6000 feet AGL
Weather: no significant weather observed at this time

METAR text: BIEG 170900Z 01017KT 9999 FEW004 SCT045 BKN060 01/M00 Q0997 R04/790192
Conditions at: BIEG (EGILSSTADIR , IS) observed 0900 UTC 17 February 2019
Temperature: 1.0°C (34°F)
Dewpoint: 0.0°C (32°F) [RH = 93%]
Pressure (altimeter): 29.44 inches Hg (997.0 mb)
Winds: from the N (10 degrees) at 20 MPH (17 knots; 8.7 m/s)
Visibility: 6 or more miles (10+ km)
Ceiling: 6000 feet AGL
Clouds: few clouds at 400 feet AGL
scattered clouds at 4500 feet AGL
broken clouds at 6000 feet AGL
Weather: no significant weather observed at this time

METAR text: BIEG 170800Z 36015KT 9999 FEW018 BKN025 BKN045 01/00 Q0997 R04/790192
Conditions at: BIEG (EGILSSTADIR , IS) observed 0800 UTC 17 February 2019
Temperature: 1.0°C (34°F)
Dewpoint: 0.0°C (32°F) [RH = 93%]
Pressure (altimeter): 29.44 inches Hg (997.0 mb)
Winds: from the N (360 degrees) at 17 MPH (15 knots; 7.7 m/s)
Visibility: 6 or more miles (10+ km)
Ceiling: 2500 feet AGL
Clouds: few clouds at 1800 feet AGL
broken clouds at 2500 feet AGL
broken clouds at 4500 feet AGL
Weather: no significant weather observed at this time

METAR text: BIEG 170700Z 01017KT 9999 SCT012 BKN018 OVC025 01/00 Q0998 RERASN R04/790192
Conditions at: BIEG (EGILSSTADIR , IS) observed 0700 UTC 17 February 2019
Temperature: 1.0°C (34°F)
Dewpoint: 0.0°C (32°F) [RH = 93%]
Pressure (altimeter): 29.47 inches Hg (998.0 mb)
Winds: from the N (10 degrees) at 20 MPH (17 knots; 8.7 m/s)
Visibility: 6 or more miles (10+ km)
Ceiling: 1800 feet AGL
Clouds: scattered clouds at 1200 feet AGL
broken clouds at 1800 feet AGL
overcast cloud deck at 2500 feet AGL
Weather: no significant weather observed at this time

METAR text: BIEG 170600Z 34024KT 8000 -SNRA SCT012 BKN018 OVC025 01/00 Q0998 R04/550327
Conditions at: BIEG (EGILSSTADIR , IS) observed 0600 UTC 17 February 2019
Temperature: 1.0°C (34°F)
Dewpoint: 0.0°C (32°F) [RH = 93%]
Pressure (altimeter): 29.47 inches Hg (998.0 mb)
Winds: from the NNW (340 degrees) at 28 MPH (24 knots; 12.3 m/s)
Visibility: 5 miles ( 8 km)
Ceiling: 1800 feet AGL
Clouds: scattered clouds at 1200 feet AGL
broken clouds at 1800 feet AGL
overcast cloud deck at 2500 feet AGL
Weather: -SN -RA  (light snow, light rain)

METAR text: BIEG 170500Z 35010KT 6000 -SN SCT012 OVC020 01/M01 Q0999 R04/550393
Conditions at: BIEG (EGILSSTADIR , IS) observed 0500 UTC 17 February 2019
Temperature: 1.0°C (34°F)
Dewpoint: -1.0°C (30°F) [RH = 86%]
Pressure (altimeter): 29.50 inches Hg (999.0 mb)
Winds: from the N (350 degrees) at 12 MPH (10 knots; 5.1 m/s)
Visibility: 4 miles ( 6 km)
Ceiling: 2000 feet AGL
Clouds: scattered clouds at 1200 feet AGL
overcast cloud deck at 2000 feet AGL
Weather: -SN  (light snow)

METAR text: BIEG 170400Z 04012KT 4000 -SN VV010 01/M01 Q1000 R04/550393
Conditions at: BIEG (EGILSSTADIR , IS) observed 0400 UTC 17 February 2019
Temperature: 1.0°C (34°F)
Dewpoint: -1.0°C (30°F) [RH = 86%]
Pressure (altimeter): 29.53 inches Hg (1000.0 mb)
Winds: from the NE (40 degrees) at 14 MPH (12 knots; 6.2 m/s)
Visibility: 2.49 miles (4.01 km)
Ceiling: indefinite ceiling with vertical visibility of 1000 feet AGL
Clouds: obscured sky
Weather: -SN  (light snow)

METAR text: BIEG 170300Z 04014KT 4000 -SN VV010 01/M01 Q1001 R04/550334
Conditions at: BIEG (EGILSSTADIR , IS) observed 0300 UTC 17 February 2019
Temperature: 1.0°C (34°F)
Dewpoint: -1.0°C (30°F) [RH = 86%]
Pressure (altimeter): 29.56 inches Hg (1001.0 mb)
Winds: from the NE (40 degrees) at 16 MPH (14 knots; 7.2 m/s)
Visibility: 2.49 miles (4.01 km)
Ceiling: indefinite ceiling with vertical visibility of 1000 feet AGL
Clouds: obscured sky
Weather: -SN  (light snow)

METAR text: BIEG 170200Z 02014KT 5000 -SN SCT004 BKN010 OVC018 01/00 Q1001
Conditions at: BIEG (EGILSSTADIR , IS) observed 0200 UTC 17 February 2019
Temperature: 1.0°C (34°F)
Dewpoint: 0.0°C (32°F) [RH = 93%]
Pressure (altimeter): 29.56 inches Hg (1001.0 mb)
Winds: from the NNE (20 degrees) at 16 MPH (14 knots; 7.2 m/s)
Visibility: 3 miles ( 5 km)
Ceiling: 1000 feet AGL
Clouds: scattered clouds at 400 feet AGL
broken clouds at 1000 feet AGL
overcast cloud deck at 1800 feet AGL
Weather: -SN  (light snow)

METAR text: BIEG 170100Z 01013KT 9000 -SN BKN013 OVC020 00/M02 Q1003
Conditions at: BIEG (EGILSSTADIR , IS) observed 0100 UTC 17 February 2019
Temperature: 0.0°C (32°F)
Dewpoint: -2.0°C (28°F) [RH = 86%]
Pressure (altimeter): 29.62 inches Hg (1003.0 mb)
Winds: from the N (10 degrees) at 15 MPH (13 knots; 6.7 m/s)
Visibility: 6 miles ( 9 km)
Ceiling: 1300 feet AGL
Clouds: broken clouds at 1300 feet AGL
overcast cloud deck at 2000 feet AGL
Weather: -SN  (light snow)

METAR text: BIEG 170000Z 36013KT 9999 VCSH SCT020 OVC030 M01/M03 Q1004
Conditions at: BIEG (EGILSSTADIR , IS) observed 0000 UTC 17 February 2019
Temperature: -1.0°C (30°F)
Dewpoint: -3.0°C (27°F) [RH = 86%]
Pressure (altimeter): 29.65 inches Hg (1004.0 mb)
Winds: from the N (360 degrees) at 15 MPH (13 knots; 6.7 m/s)
Visibility: 6 or more miles (10+ km)
Ceiling: 3000 feet AGL
Clouds: scattered clouds at 2000 feet AGL
overcast cloud deck at 3000 feet AGL
Weather: VCSH  (showers in vicinity)

METAR text: BIEG 162300Z 01012KT 9999 VCSH SCT020 OVC030 M01/M03 Q1005
Conditions at: BIEG (EGILSSTADIR , IS) observed 2300 UTC 16 February 2019
Temperature: -1.0°C (30°F)
Dewpoint: -3.0°C (27°F) [RH = 86%]
Pressure (altimeter): 29.68 inches Hg (1005.0 mb)
Winds: from the N (10 degrees) at 14 MPH (12 knots; 6.2 m/s)
Visibility: 6 or more miles (10+ km)
Ceiling: 3000 feet AGL
Clouds: scattered clouds at 2000 feet AGL
overcast cloud deck at 3000 feet AGL
Weather: VCSH  (showers in vicinity)

METAR text: BIEG 162200Z 36014KT 9999 SCT020 BKN030 BKN045 M04/M05 Q1006 RESN
Conditions at: BIEG (EGILSSTADIR , IS) observed 2200 UTC 16 February 2019
Temperature: -4.0°C (25°F)
Dewpoint: -5.0°C (23°F) [RH = 93%]
Pressure (altimeter): 29.70 inches Hg (1006.0 mb)
Winds: from the N (360 degrees) at 16 MPH (14 knots; 7.2 m/s)
Visibility: 6 or more miles (10+ km)
Ceiling: 3000 feet AGL
Clouds: scattered clouds at 2000 feet AGL
broken clouds at 3000 feet AGL
broken clouds at 4500 feet AGL
Weather: no significant weather observed at this time

METAR text: BIEG 162100Z 05012KT 8000 -SN SCT015 BKN025 BKN035 M05/M06 Q1008
Conditions at: BIEG (EGILSSTADIR , IS) observed 2100 UTC 16 February 2019
Temperature: -5.0°C (23°F)
Dewpoint: -6.0°C (21°F) [RH = 93%]
Pressure (altimeter): 29.76 inches Hg (1008.0 mb)
Winds: from the NE (50 degrees) at 14 MPH (12 knots; 6.2 m/s)
Visibility: 5 miles ( 8 km)
Ceiling: 2500 feet AGL
Clouds: scattered clouds at 1500 feet AGL
broken clouds at 2500 feet AGL
broken clouds at 3500 feet AGL
Weather: -SN  (light snow)

Forecast for: BIEG (EGILSSTADIR , IS)
Text: TAF BIEG 180751Z 1809/1909 35020G30KT 7000 -SNRA SCT010 BKN015 OVC025 TX01/1812Z TNM08/1909Z
Forecast period: 0900 to 1200 UTC 18 February 2019
Forecast type: FROM: standard forecast or significant change
Winds: from the N (350 degrees) at 23 MPH (20 knots; 10.3 m/s)
gusting to 34 MPH (30 knots; 15.4 m/s)
Visibility: 4 miles (7 km)
Ceiling: 1500 feet AGL
Clouds: scattered clouds at 1000 feet AGL
broken clouds at 1500 feet AGL
overcast cloud deck at 2500 feet AGL
Weather: -SN -RA  (light snow, light rain)
Text: TEMPO 1809/1814 2500 SN BKN005 OVC010
Forecast period: 0900 to 1400 UTC 18 February 2019
Forecast type: TEMPORARY: The following changes expected for less than half the time period
Visibility: 1.55 miles (2.49 km)
Ceiling: 500 feet AGL
Clouds: broken clouds at 500 feet AGL
overcast cloud deck at 1000 feet AGL
Weather: SN  (moderate snow)
Text: BECMG 1812/1815 32015KT 9999 -SHSN BKN025
Forecast period: 1200 to 2100 UTC 18 February 2019
Forecast type: BECOMING: Conditions expected to become as follows by 1500 UTC 18 February 2019
Winds: from the NW (320 degrees) at 17 MPH (15 knots; 7.7 m/s)
Visibility: 6 or more miles 10+ km)
Ceiling: 2500 feet AGL
Clouds: broken clouds at 2500 feet AGL
Weather: -SHSN  (light snow showers)
Text: TEMPO 1814/1821 3000 SHSN BKN008
Forecast period: 1400 to 2100 UTC 18 February 2019
Forecast type: TEMPORARY: The following changes expected for less than half the time period
Visibility: 1.86 miles (2.99 km)
Ceiling: 800 feet AGL
Clouds: broken clouds at 800 feet AGL
Weather: SHSN  (snow showers)
Text: BECMG 1821/1900 22008KT
Forecast period: 2100 UTC 18 February 2019 to 0300 UTC 19 February 2019
Forecast type: BECOMING: Conditions expected to become as follows by 0000 UTC 19 February 2019
Winds: from the SW (220 degrees) at 9 MPH (8 knots; 4.1 m/s)
Visibility: 6 or more miles 10+ km)
Ceiling: 2500 feet AGL
Clouds: broken clouds at 2500 feet AGL
Weather: -SHSN  (light snow showers)
Text: BECMG 1903/1906 FEW030
Forecast period: 0300 to 0900 UTC 19 February 2019
Forecast type: BECOMING: Conditions expected to become as follows by 0600 UTC 19 February 2019
Winds: from the SW (220 degrees) at 9 MPH (8 knots; 4.1 m/s)
Visibility: 6 or more miles 10+ km)
Ceiling: at least 12,000 feet AGL
Clouds: few clouds at 3000 feet AGL
Weather: -SHSN  (light snow showers)